sensor_id;sensor_type;location;lat;lon;timestamp;temperature;humidity
10149;DHT22;5115;50.920;6.376;2023-04-25T00:01:38;9.00;99.90
10149;DHT22;5115;50.920;6.376;2023-04-25T00:04:04;9.00;99.90
10149;DHT22;5115;50.920;6.376;2023-04-25T00:06:32;8.90;99.90
10149;DHT22;5115;50.920;6.376;2023-04-25T00:08:57;8.90;99.90
10149;DHT22;5115;50.920;6.376;2023-04-25T00:11:23;8.80;99.90
10149;DHT22;5115;50.920;6.376;2023-04-25T00:13:49;8.80;99.90
10149;DHT22;5115;50.920;6.376;2023-04-25T00:16:18;8.80;99.90
10149;DHT22;5115;50.920;6.376;2023-04-25T00:18:43;8.80;99.90
10149;DHT22;5115;50.920;6.376;2023-04-25T00:21:11;8.70;99.90
10149;DHT22;5115;50.920;6.376;2023-04-25T00:23:37;8.70;99.90
10149;DHT22;5115;50.920;6.376;2023-04-25T00:26:04;8.70;99.90
10149;DHT22;5115;50.920;6.376;2023-04-25T00:28:30;8.70;99.90
10149;DHT22;5115;50.920;6.376;2023-04-25T00:31:01;8.70;99.90
10149;DHT22;5115;50.920;6.376;2023-04-25T00:33:26;8.70;99.90
10149;DHT22;5115;50.920;6.376;2023-04-25T00:35:52;8.70;99.90
10149;DHT22;5115;50.920;6.376;2023-04-25T00:38:17;8.70;99.90
10149;DHT22;5115;50.920;6.376;2023-04-25T00:40:44;8.70;99.90
10149;DHT22;5115;50.920;6.376;2023-04-25T00:43:10;8.60;99.90
10149;DHT22;5115;50.920;6.376;2023-04-25T00:45:38;8.60;99.90
10149;DHT22;5115;50.920;6.376;2023-04-25T00:48:05;8.70;99.90
10149;DHT22;5115;50.920;6.376;2023-04-25T00:50:33;8.60;99.90
10149;DHT22;5115;50.920;6.376;2023-04-25T00:52:58;8.70;99.90
10149;DHT22;5115;50.920;6.376;2023-04-25T00:55:24;8.70;99.90
10149;DHT22;5115;50.920;6.376;2023-04-25T00:57:50;8.60;99.90
10149;DHT22;5115;50.920;6.376;2023-04-25T01:00:16;8.60;99.90
10149;DHT22;5115;50.920;6.376;2023-04-25T01:02:42;8.70;99.90
10149;DHT22;5115;50.920;6.376;2023-04-25T01:05:08;8.70;99.90
10149;DHT22;5115;50.920;6.376;2023-04-25T01:07:34;8.80;99.90
10149;DHT22;5115;50.920;6.376;2023-04-25T01:10:00;8.60;99.90
10149;DHT22;5115;50.920;6.376;2023-04-25T01:12:26;8.60;99.90
10149;DHT22;5115;50.920;6.376;2023-04-25T01:14:52;8.70;99.90
10149;DHT22;5115;50.920;6.376;2023-04-25T01:17:19;8.70;99.90
10149;DHT22;5115;50.920;6.376;2023-04-25T01:19:45;8.70;99.90
10149;DHT22;5115;50.920;6.376;2023-04-25T01:22:14;8.80;99.90
10149;DHT22;5115;50.920;6.376;2023-04-25T01:24:40;8.80;99.90
10149;DHT22;5115;50.920;6.376;2023-04-25T01:27:07;8.80;99.90
10149;DHT22;5115;50.920;6.376;2023-04-25T01:29:33;8.80;99.90
10149;DHT22;5115;50.920;6.376;2023-04-25T01:32:00;8.80;99.90
10149;DHT22;5115;50.920;6.376;2023-04-25T01:34:26;8.90;99.90
10149;DHT22;5115;50.920;6.376;2023-04-25T01:36:53;8.70;99.90
10149;DHT22;5115;50.920;6.376;2023-04-25T01:39:19;8.70;99.90
10149;DHT22;5115;50.920;6.376;2023-04-25T01:41:48;8.70;99.90
10149;DHT22;5115;50.920;6.376;2023-04-25T01:44:15;8.70;99.90
10149;DHT22;5115;50.920;6.376;2023-04-25T01:46:42;8.70;99.90
10149;DHT22;5115;50.920;6.376;2023-04-25T01:49:07;8.80;99.90
10149;DHT22;5115;50.920;6.376;2023-04-25T01:51:33;8.80;99.90
10149;DHT22;5115;50.920;6.376;2023-04-25T01:53:59;8.80;99.90
10149;DHT22;5115;50.920;6.376;2023-04-25T01:56:25;8.80;99.90
10149;DHT22;5115;50.920;6.376;2023-04-25T01:58:51;8.80;99.90
10149;DHT22;5115;50.920;6.376;2023-04-25T02:01:17;8.70;99.90
10149;DHT22;5115;50.920;6.376;2023-04-25T02:03:43;8.60;99.90
10149;DHT22;5115;50.920;6.376;2023-04-25T02:06:08;8.60;99.90
10149;DHT22;5115;50.920;6.376;2023-04-25T02:08:34;8.70;99.90
10149;DHT22;5115;50.920;6.376;2023-04-25T02:11:00;8.70;99.90
10149;DHT22;5115;50.920;6.376;2023-04-25T02:13:25;8.70;99.90
10149;DHT22;5115;50.920;6.376;2023-04-25T02:15:51;8.60;99.90
10149;DHT22;5115;50.920;6.376;2023-04-25T02:18:16;8.70;99.90
10149;DHT22;5115;50.920;6.376;2023-04-25T02:20:43;8.60;99.90
10149;DHT22;5115;50.920;6.376;2023-04-25T02:23:09;8.70;99.90
10149;DHT22;5115;50.920;6.376;2023-04-25T02:25:35;8.60;99.90
10149;DHT22;5115;50.920;6.376;2023-04-25T02:28:00;8.80;99.90
10149;DHT22;5115;50.920;6.376;2023-04-25T02:30:26;8.70;99.90
10149;DHT22;5115;50.920;6.376;2023-04-25T02:32:52;8.70;99.90
10149;DHT22;5115;50.920;6.376;2023-04-25T02:35:18;8.70;99.90
10149;DHT22;5115;50.920;6.376;2023-04-25T02:37:43;8.70;99.90
10149;DHT22;5115;50.920;6.376;2023-04-25T02:40:09;8.70;99.90
10149;DHT22;5115;50.920;6.376;2023-04-25T02:42:35;8.70;99.90
10149;DHT22;5115;50.920;6.376;2023-04-25T02:45:02;8.70;99.90
10149;DHT22;5115;50.920;6.376;2023-04-25T02:47:28;8.80;99.90
10149;DHT22;5115;50.920;6.376;2023-04-25T02:49:53;8.80;99.90
10149;DHT22;5115;50.920;6.376;2023-04-25T02:52:19;8.80;99.90
10149;DHT22;5115;50.920;6.376;2023-04-25T02:54:45;8.80;99.90
10149;DHT22;5115;50.920;6.376;2023-04-25T02:57:10;8.70;99.90
10149;DHT22;5115;50.920;6.376;2023-04-25T02:59:36;8.70;99.90
10149;DHT22;5115;50.920;6.376;2023-04-25T03:02:01;8.60;99.90
10149;DHT22;5115;50.920;6.376;2023-04-25T03:04:27;8.70;99.90
10149;DHT22;5115;50.920;6.376;2023-04-25T03:06:53;8.70;99.90
10149;DHT22;5115;50.920;6.376;2023-04-25T03:09:19;8.70;99.90
10149;DHT22;5115;50.920;6.376;2023-04-25T03:11:45;8.80;99.90
10149;DHT22;5115;50.920;6.376;2023-04-25T03:14:11;8.60;99.90
10149;DHT22;5115;50.920;6.376;2023-04-25T03:16:37;8.60;99.90
10149;DHT22;5115;50.920;6.376;2023-04-25T03:19:03;8.70;99.90
10149;DHT22;5115;50.920;6.376;2023-04-25T03:21:30;8.60;99.90
10149;DHT22;5115;50.920;6.376;2023-04-25T03:24:16;8.50;99.90
10149;DHT22;5115;50.920;6.376;2023-04-25T03:26:42;8.50;99.90
10149;DHT22;5115;50.920;6.376;2023-04-25T03:29:08;8.50;99.90
10149;DHT22;5115;50.920;6.376;2023-04-25T03:31:34;8.50;99.90
10149;DHT22;5115;50.920;6.376;2023-04-25T03:33:59;8.60;99.90
10149;DHT22;5115;50.920;6.376;2023-04-25T03:36:25;8.60;99.90
10149;DHT22;5115;50.920;6.376;2023-04-25T03:38:51;8.60;99.90
10149;DHT22;5115;50.920;6.376;2023-04-25T03:41:16;8.60;99.90
10149;DHT22;5115;50.920;6.376;2023-04-25T03:43:42;8.50;99.90
10149;DHT22;5115;50.920;6.376;2023-04-25T03:46:07;8.60;99.90
10149;DHT22;5115;50.920;6.376;2023-04-25T03:48:33;8.50;99.90
10149;DHT22;5115;50.920;6.376;2023-04-25T03:50:58;8.50;99.90
10149;DHT22;5115;50.920;6.376;2023-04-25T03:53:25;8.50;99.90
10149;DHT22;5115;50.920;6.376;2023-04-25T03:55:51;8.50;99.90
10149;DHT22;5115;50.920;6.376;2023-04-25T03:58:17;8.50;99.90
10149;DHT22;5115;50.920;6.376;2023-04-25T04:00:42;8.50;99.90
10149;DHT22;5115;50.920;6.376;2023-04-25T04:03:08;8.40;99.90
10149;DHT22;5115;50.920;6.376;2023-04-25T04:05:34;8.40;99.90
10149;DHT22;5115;50.920;6.376;2023-04-25T04:07:59;8.50;99.90
10149;DHT22;5115;50.920;6.376;2023-04-25T04:10:25;8.40;99.90
10149;DHT22;5115;50.920;6.376;2023-04-25T04:12:51;8.40;99.90
10149;DHT22;5115;50.920;6.376;2023-04-25T04:15:17;8.40;99.90
10149;DHT22;5115;50.920;6.376;2023-04-25T04:17:43;8.40;99.90
10149;DHT22;5115;50.920;6.376;2023-04-25T04:20:10;8.40;99.90
10149;DHT22;5115;50.920;6.376;2023-04-25T04:22:36;8.40;99.90
10149;DHT22;5115;50.920;6.376;2023-04-25T04:25:02;8.40;99.90
10149;DHT22;5115;50.920;6.376;2023-04-25T04:27:28;8.50;99.90
10149;DHT22;5115;50.920;6.376;2023-04-25T04:29:55;8.50;99.90
10149;DHT22;5115;50.920;6.376;2023-04-25T04:32:21;8.50;99.90
10149;DHT22;5115;50.920;6.376;2023-04-25T04:34:48;8.50;99.90
10149;DHT22;5115;50.920;6.376;2023-04-25T04:37:14;8.40;99.90
10149;DHT22;5115;50.920;6.376;2023-04-25T04:39:41;8.40;99.90
10149;DHT22;5115;50.920;6.376;2023-04-25T04:42:06;8.50;99.90
10149;DHT22;5115;50.920;6.376;2023-04-25T04:44:32;8.60;99.90
10149;DHT22;5115;50.920;6.376;2023-04-25T04:46:58;8.50;99.90
10149;DHT22;5115;50.920;6.376;2023-04-25T04:49:24;8.40;99.90
10149;DHT22;5115;50.920;6.376;2023-04-25T04:51:49;8.50;99.90
10149;DHT22;5115;50.920;6.376;2023-04-25T04:54:15;8.40;99.90
10149;DHT22;5115;50.920;6.376;2023-04-25T04:56:41;8.40;99.90
10149;DHT22;5115;50.920;6.376;2023-04-25T04:59:07;8.40;99.90
10149;DHT22;5115;50.920;6.376;2023-04-25T05:01:32;8.30;99.90
10149;DHT22;5115;50.920;6.376;2023-04-25T05:04:00;8.40;99.90
10149;DHT22;5115;50.920;6.376;2023-04-25T05:06:27;8.50;99.90
10149;DHT22;5115;50.920;6.376;2023-04-25T05:08:54;8.50;99.90
10149;DHT22;5115;50.920;6.376;2023-04-25T05:11:20;8.50;99.90
10149;DHT22;5115;50.920;6.376;2023-04-25T05:13:46;8.60;99.90
10149;DHT22;5115;50.920;6.376;2023-04-25T05:16:12;8.60;99.90
10149;DHT22;5115;50.920;6.376;2023-04-25T05:18:39;8.60;99.90
10149;DHT22;5115;50.920;6.376;2023-04-25T05:21:05;8.60;99.90
10149;DHT22;5115;50.920;6.376;2023-04-25T05:23:32;8.60;99.90
10149;DHT22;5115;50.920;6.376;2023-04-25T05:25:58;8.70;99.90
10149;DHT22;5115;50.920;6.376;2023-04-25T05:28:23;8.70;99.90
10149;DHT22;5115;50.920;6.376;2023-04-25T05:30:49;8.70;99.90
10149;DHT22;5115;50.920;6.376;2023-04-25T05:33:15;8.80;99.90
10149;DHT22;5115;50.920;6.376;2023-04-25T05:35:41;8.90;99.90
10149;DHT22;5115;50.920;6.376;2023-04-25T05:38:06;8.90;99.90
10149;DHT22;5115;50.920;6.376;2023-04-25T05:40:34;9.00;99.90
10149;DHT22;5115;50.920;6.376;2023-04-25T05:42:59;8.90;99.90
10149;DHT22;5115;50.920;6.376;2023-04-25T05:45:25;8.90;99.90
10149;DHT22;5115;50.920;6.376;2023-04-25T05:47:51;9.00;99.90
10149;DHT22;5115;50.920;6.376;2023-04-25T05:50:17;9.10;99.90
10149;DHT22;5115;50.920;6.376;2023-04-25T05:52:42;9.20;99.90
10149;DHT22;5115;50.920;6.376;2023-04-25T05:55:08;9.10;99.90
10149;DHT22;5115;50.920;6.376;2023-04-25T05:57:34;9.10;99.90
10149;DHT22;5115;50.920;6.376;2023-04-25T06:00:00;9.20;99.90
10149;DHT22;5115;50.920;6.376;2023-04-25T06:02:26;9.20;99.90
10149;DHT22;5115;50.920;6.376;2023-04-25T06:04:53;9.30;99.90
10149;DHT22;5115;50.920;6.376;2023-04-25T06:07:20;9.30;99.90
10149;DHT22;5115;50.920;6.376;2023-04-25T06:09:46;9.20;99.90
10149;DHT22;5115;50.920;6.376;2023-04-25T06:12:11;9.10;99.90
10149;DHT22;5115;50.920;6.376;2023-04-25T06:14:37;9.20;99.90
10149;DHT22;5115;50.920;6.376;2023-04-25T06:17:03;9.20;99.90
10149;DHT22;5115;50.920;6.376;2023-04-25T06:19:35;9.20;99.90
10149;DHT22;5115;50.920;6.376;2023-04-25T06:22:01;9.30;99.90
10149;DHT22;5115;50.920;6.376;2023-04-25T06:24:27;9.40;99.90
10149;DHT22;5115;50.920;6.376;2023-04-25T06:26:53;9.40;99.90
10149;DHT22;5115;50.920;6.376;2023-04-25T06:29:19;9.50;99.90
10149;DHT22;5115;50.920;6.376;2023-04-25T06:31:44;9.60;99.90
10149;DHT22;5115;50.920;6.376;2023-04-25T06:34:10;9.70;99.90
10149;DHT22;5115;50.920;6.376;2023-04-25T06:36:36;9.90;99.90
10149;DHT22;5115;50.920;6.376;2023-04-25T06:39:02;10.20;99.90
10149;DHT22;5115;50.920;6.376;2023-04-25T06:41:27;10.30;99.90
10149;DHT22;5115;50.920;6.376;2023-04-25T06:43:53;10.50;99.90
10149;DHT22;5115;50.920;6.376;2023-04-25T06:46:19;10.50;99.90
10149;DHT22;5115;50.920;6.376;2023-04-25T06:48:44;10.60;99.90
10149;DHT22;5115;50.920;6.376;2023-04-25T06:51:10;10.70;99.90
10149;DHT22;5115;50.920;6.376;2023-04-25T06:53:36;10.90;99.90
10149;DHT22;5115;50.920;6.376;2023-04-25T06:56:01;11.10;99.90
10149;DHT22;5115;50.920;6.376;2023-04-25T06:58:28;11.10;99.90
10149;DHT22;5115;50.920;6.376;2023-04-25T07:00:54;11.00;99.90
10149;DHT22;5115;50.920;6.376;2023-04-25T07:03:19;11.00;99.90
10149;DHT22;5115;50.920;6.376;2023-04-25T07:05:45;11.00;99.90
10149;DHT22;5115;50.920;6.376;2023-04-25T07:08:11;11.00;99.90
10149;DHT22;5115;50.920;6.376;2023-04-25T07:10:37;11.10;99.90
10149;DHT22;5115;50.920;6.376;2023-04-25T07:13:03;11.00;99.90
10149;DHT22;5115;50.920;6.376;2023-04-25T07:15:29;10.90;99.90
10149;DHT22;5115;50.920;6.376;2023-04-25T07:17:54;11.00;99.90
10149;DHT22;5115;50.920;6.376;2023-04-25T07:20:20;11.30;99.90
10149;DHT22;5115;50.920;6.376;2023-04-25T07:22:46;11.60;99.90
10149;DHT22;5115;50.920;6.376;2023-04-25T07:25:11;11.90;99.90
10149;DHT22;5115;50.920;6.376;2023-04-25T07:27:37;12.40;99.90
10149;DHT22;5115;50.920;6.376;2023-04-25T07:30:03;12.70;99.90
10149;DHT22;5115;50.920;6.376;2023-04-25T07:32:29;12.90;99.90
10149;DHT22;5115;50.920;6.376;2023-04-25T07:34:55;12.90;99.90
10149;DHT22;5115;50.920;6.376;2023-04-25T07:37:21;12.80;99.90
10149;DHT22;5115;50.920;6.376;2023-04-25T07:39:46;12.70;99.90
10149;DHT22;5115;50.920;6.376;2023-04-25T07:42:12;12.50;99.90
10149;DHT22;5115;50.920;6.376;2023-04-25T07:44:38;12.40;99.90
10149;DHT22;5115;50.920;6.376;2023-04-25T07:47:06;12.10;99.90
10149;DHT22;5115;50.920;6.376;2023-04-25T07:49:36;12.20;99.90
10149;DHT22;5115;50.920;6.376;2023-04-25T07:52:03;12.20;99.90
10149;DHT22;5115;50.920;6.376;2023-04-25T07:54:28;12.00;99.90
10149;DHT22;5115;50.920;6.376;2023-04-25T07:56:55;12.00;99.90
10149;DHT22;5115;50.920;6.376;2023-04-25T07:59:21;12.10;99.90
10149;DHT22;5115;50.920;6.376;2023-04-25T08:01:47;12.10;99.90
10149;DHT22;5115;50.920;6.376;2023-04-25T08:04:13;11.90;99.90
10149;DHT22;5115;50.920;6.376;2023-04-25T08:06:38;11.80;99.90
10149;DHT22;5115;50.920;6.376;2023-04-25T08:09:04;11.80;99.90
10149;DHT22;5115;50.920;6.376;2023-04-25T08:11:30;11.80;99.90
10149;DHT22;5115;50.920;6.376;2023-04-25T08:13:55;11.90;99.90
10149;DHT22;5115;50.920;6.376;2023-04-25T08:16:21;11.90;99.90
10149;DHT22;5115;50.920;6.376;2023-04-25T08:18:47;11.90;99.90
10149;DHT22;5115;50.920;6.376;2023-04-25T08:21:13;12.00;99.90
10149;DHT22;5115;50.920;6.376;2023-04-25T08:23:39;12.10;99.90
10149;DHT22;5115;50.920;6.376;2023-04-25T08:26:05;12.10;99.90
10149;DHT22;5115;50.920;6.376;2023-04-25T08:28:31;12.10;99.90
10149;DHT22;5115;50.920;6.376;2023-04-25T08:30:56;12.10;99.90
10149;DHT22;5115;50.920;6.376;2023-04-25T08:33:22;12.20;99.90
10149;DHT22;5115;50.920;6.376;2023-04-25T08:35:48;12.10;99.90
10149;DHT22;5115;50.920;6.376;2023-04-25T08:38:14;12.10;99.90
10149;DHT22;5115;50.920;6.376;2023-04-25T08:40:40;12.20;99.90
10149;DHT22;5115;50.920;6.376;2023-04-25T08:43:06;12.30;99.90
10149;DHT22;5115;50.920;6.376;2023-04-25T08:45:39;12.40;99.90
10149;DHT22;5115;50.920;6.376;2023-04-25T08:48:10;12.50;99.90
10149;DHT22;5115;50.920;6.376;2023-04-25T08:50:41;12.50;99.90
10149;DHT22;5115;50.920;6.376;2023-04-25T08:53:09;12.30;99.90
10149;DHT22;5115;50.920;6.376;2023-04-25T08:55:41;12.30;99.90
10149;DHT22;5115;50.920;6.376;2023-04-25T08:58:07;12.30;99.90
10149;DHT22;5115;50.920;6.376;2023-04-25T09:00:34;12.50;99.90
10149;DHT22;5115;50.920;6.376;2023-04-25T09:03:00;12.60;99.90
10149;DHT22;5115;50.920;6.376;2023-04-25T09:05:26;12.90;99.90
10149;DHT22;5115;50.920;6.376;2023-04-25T09:07:51;13.30;99.90
10149;DHT22;5115;50.920;6.376;2023-04-25T09:10:17;13.70;99.90
10149;DHT22;5115;50.920;6.376;2023-04-25T09:12:42;13.70;99.90
10149;DHT22;5115;50.920;6.376;2023-04-25T09:15:10;13.80;99.90
10149;DHT22;5115;50.920;6.376;2023-04-25T09:17:36;13.30;99.90
10149;DHT22;5115;50.920;6.376;2023-04-25T09:20:13;13.20;99.90
10149;DHT22;5115;50.920;6.376;2023-04-25T09:22:39;13.20;99.90
10149;DHT22;5115;50.920;6.376;2023-04-25T09:25:13;12.90;99.90
10149;DHT22;5115;50.920;6.376;2023-04-25T09:27:54;12.80;99.90
10149;DHT22;5115;50.920;6.376;2023-04-25T09:30:34;12.70;99.90
10149;DHT22;5115;50.920;6.376;2023-04-25T09:33:08;12.60;99.90
10149;DHT22;5115;50.920;6.376;2023-04-25T09:35:39;12.60;99.90
10149;DHT22;5115;50.920;6.376;2023-04-25T09:38:13;12.60;99.90
10149;DHT22;5115;50.920;6.376;2023-04-25T09:40:43;12.70;99.90
10149;DHT22;5115;50.920;6.376;2023-04-25T09:43:19;12.20;99.90
10149;DHT22;5115;50.920;6.376;2023-04-25T09:45:46;12.70;99.90
10149;DHT22;5115;50.920;6.376;2023-04-25T09:48:22;12.80;99.90
10149;DHT22;5115;50.920;6.376;2023-04-25T09:51:11;13.00;99.90
10149;DHT22;5115;50.920;6.376;2023-04-25T09:53:41;13.00;99.90
10149;DHT22;5115;50.920;6.376;2023-04-25T09:56:08;13.10;99.90
10149;DHT22;5115;50.920;6.376;2023-04-25T09:58:35;13.10;99.90
10149;DHT22;5115;50.920;6.376;2023-04-25T10:01:06;13.10;99.90
10149;DHT22;5115;50.920;6.376;2023-04-25T10:03:37;13.00;99.90
10149;DHT22;5115;50.920;6.376;2023-04-25T10:06:25;13.20;99.90
10149;DHT22;5115;50.920;6.376;2023-04-25T10:08:52;13.60;99.90
10149;DHT22;5115;50.920;6.376;2023-04-25T10:11:21;14.00;99.90
10149;DHT22;5115;50.920;6.376;2023-04-25T10:13:48;14.30;99.90
10149;DHT22;5115;50.920;6.376;2023-04-25T10:16:14;14.90;99.90
10149;DHT22;5115;50.920;6.376;2023-04-25T10:18:41;15.40;99.90
10149;DHT22;5115;50.920;6.376;2023-04-25T10:21:07;15.60;99.90
10149;DHT22;5115;50.920;6.376;2023-04-25T10:23:32;15.20;99.90
10149;DHT22;5115;50.920;6.376;2023-04-25T10:26:02;15.50;99.90
10149;DHT22;5115;50.920;6.376;2023-04-25T10:28:28;15.20;99.90
10149;DHT22;5115;50.920;6.376;2023-04-25T10:33:36;15.10;99.90
10149;DHT22;5115;50.920;6.376;2023-04-25T10:36:19;15.10;99.90
10149;DHT22;5115;50.920;6.376;2023-04-25T10:38:47;15.10;99.90
10149;DHT22;5115;50.920;6.376;2023-04-25T10:41:14;15.10;99.90
10149;DHT22;5115;50.920;6.376;2023-04-25T10:43:47;15.10;99.90
10149;DHT22;5115;50.920;6.376;2023-04-25T10:46:24;15.30;99.90
10149;DHT22;5115;50.920;6.376;2023-04-25T10:48:53;15.60;99.90
10149;DHT22;5115;50.920;6.376;2023-04-25T10:53:46;15.40;99.90
10149;DHT22;5115;50.920;6.376;2023-04-25T10:58:42;15.70;99.90
10149;DHT22;5115;50.920;6.376;2023-04-25T11:01:08;15.40;99.90
10149;DHT22;5115;50.920;6.376;2023-04-25T11:03:42;15.10;99.90
10149;DHT22;5115;50.920;6.376;2023-04-25T11:08:50;14.80;99.90
10149;DHT22;5115;50.920;6.376;2023-04-25T11:11:19;14.60;99.90
10149;DHT22;5115;50.920;6.376;2023-04-25T11:13:49;14.60;99.90
10149;DHT22;5115;50.920;6.376;2023-04-25T11:16:15;14.30;99.90
10149;DHT22;5115;50.920;6.376;2023-04-25T11:18:42;14.20;99.90
10149;DHT22;5115;50.920;6.376;2023-04-25T11:21:07;14.10;99.90
10149;DHT22;5115;50.920;6.376;2023-04-25T11:23:33;14.00;99.90
10149;DHT22;5115;50.920;6.376;2023-04-25T11:25:59;14.00;99.90
10149;DHT22;5115;50.920;6.376;2023-04-25T11:28:26;13.70;99.90
10149;DHT22;5115;50.920;6.376;2023-04-25T11:30:52;13.90;99.90
10149;DHT22;5115;50.920;6.376;2023-04-25T11:33:22;13.90;99.90
10149;DHT22;5115;50.920;6.376;2023-04-25T11:35:48;14.80;99.90
10149;DHT22;5115;50.920;6.376;2023-04-25T11:38:13;14.60;99.90
10149;DHT22;5115;50.920;6.376;2023-04-25T11:40:40;14.90;99.90
10149;DHT22;5115;50.920;6.376;2023-04-25T11:43:06;15.30;99.90
10149;DHT22;5115;50.920;6.376;2023-04-25T11:45:32;15.40;99.90
10149;DHT22;5115;50.920;6.376;2023-04-25T11:47:58;14.80;99.90
10149;DHT22;5115;50.920;6.376;2023-04-25T11:50:24;14.30;99.90
10149;DHT22;5115;50.920;6.376;2023-04-25T11:52:49;14.20;99.90
10149;DHT22;5115;50.920;6.376;2023-04-25T11:55:19;14.20;99.90
10149;DHT22;5115;50.920;6.376;2023-04-25T11:57:47;14.60;99.90
10149;DHT22;5115;50.920;6.376;2023-04-25T12:00:21;14.80;99.90
10149;DHT22;5115;50.920;6.376;2023-04-25T12:02:55;15.10;99.90
10149;DHT22;5115;50.920;6.376;2023-04-25T12:05:24;15.10;99.90
10149;DHT22;5115;50.920;6.376;2023-04-25T12:07:50;15.10;99.90
10149;DHT22;5115;50.920;6.376;2023-04-25T12:10:17;15.10;99.90
10149;DHT22;5115;50.920;6.376;2023-04-25T12:12:45;14.90;99.90
10149;DHT22;5115;50.920;6.376;2023-04-25T12:15:18;15.00;99.90
10149;DHT22;5115;50.920;6.376;2023-04-25T12:17:48;14.80;99.90
10149;DHT22;5115;50.920;6.376;2023-04-25T12:20:15;15.00;99.90
10149;DHT22;5115;50.920;6.376;2023-04-25T12:22:48;15.10;99.90
10149;DHT22;5115;50.920;6.376;2023-04-25T12:28:18;14.90;99.90
10149;DHT22;5115;50.920;6.376;2023-04-25T12:33:31;14.30;99.90
10149;DHT22;5115;50.920;6.376;2023-04-25T12:35:57;13.80;99.90
10149;DHT22;5115;50.920;6.376;2023-04-25T12:38:28;13.50;99.90
10149;DHT22;5115;50.920;6.376;2023-04-25T12:40:57;13.20;99.90
10149;DHT22;5115;50.920;6.376;2023-04-25T12:43:23;13.00;99.90
10149;DHT22;5115;50.920;6.376;2023-04-25T12:45:56;13.00;99.90
10149;DHT22;5115;50.920;6.376;2023-04-25T12:48:22;13.00;99.90
10149;DHT22;5115;50.920;6.376;2023-04-25T12:50:49;13.10;99.90
10149;DHT22;5115;50.920;6.376;2023-04-25T12:53:16;13.20;99.90
10149;DHT22;5115;50.920;6.376;2023-04-25T12:55:43;13.00;99.90
10149;DHT22;5115;50.920;6.376;2023-04-25T12:58:08;13.00;99.90
10149;DHT22;5115;50.920;6.376;2023-04-25T13:00:34;13.20;99.90
10149;DHT22;5115;50.920;6.376;2023-04-25T13:03:00;13.60;99.90
10149;DHT22;5115;50.920;6.376;2023-04-25T13:05:27;13.60;99.90
10149;DHT22;5115;50.920;6.376;2023-04-25T13:07:53;13.70;99.90
10149;DHT22;5115;50.920;6.376;2023-04-25T13:10:18;14.00;99.90
10149;DHT22;5115;50.920;6.376;2023-04-25T13:12:44;13.90;99.90
10149;DHT22;5115;50.920;6.376;2023-04-25T13:15:11;13.80;99.90
10149;DHT22;5115;50.920;6.376;2023-04-25T13:17:38;13.80;99.90
10149;DHT22;5115;50.920;6.376;2023-04-25T13:20:06;13.80;99.90
10149;DHT22;5115;50.920;6.376;2023-04-25T13:22:34;13.70;99.90
10149;DHT22;5115;50.920;6.376;2023-04-25T13:25:02;13.80;99.90
10149;DHT22;5115;50.920;6.376;2023-04-25T13:27:28;13.80;99.90
10149;DHT22;5115;50.920;6.376;2023-04-25T13:29:54;13.70;99.90
10149;DHT22;5115;50.920;6.376;2023-04-25T13:32:20;13.80;99.90
10149;DHT22;5115;50.920;6.376;2023-04-25T13:34:45;13.90;99.90
10149;DHT22;5115;50.920;6.376;2023-04-25T13:37:11;13.90;99.90
10149;DHT22;5115;50.920;6.376;2023-04-25T13:39:36;13.90;99.90
10149;DHT22;5115;50.920;6.376;2023-04-25T13:42:02;13.80;99.90
10149;DHT22;5115;50.920;6.376;2023-04-25T13:44:28;13.80;99.90
10149;DHT22;5115;50.920;6.376;2023-04-25T13:46:54;13.70;99.90
10149;DHT22;5115;50.920;6.376;2023-04-25T13:49:19;13.50;99.90
10149;DHT22;5115;50.920;6.376;2023-04-25T13:51:45;13.50;99.90
10149;DHT22;5115;50.920;6.376;2023-04-25T13:54:11;13.30;99.90
10149;DHT22;5115;50.920;6.376;2023-04-25T13:56:36;13.20;99.90
10149;DHT22;5115;50.920;6.376;2023-04-25T13:59:02;13.30;99.90
10149;DHT22;5115;50.920;6.376;2023-04-25T14:01:28;13.40;99.90
10149;DHT22;5115;50.920;6.376;2023-04-25T14:03:59;13.10;99.90
10149;DHT22;5115;50.920;6.376;2023-04-25T14:06:25;12.60;99.90
10149;DHT22;5115;50.920;6.376;2023-04-25T14:08:50;12.50;99.90
10149;DHT22;5115;50.920;6.376;2023-04-25T14:11:16;12.40;99.90
10149;DHT22;5115;50.920;6.376;2023-04-25T14:13:44;12.10;99.90
10149;DHT22;5115;50.920;6.376;2023-04-25T14:16:10;12.60;99.90
10149;DHT22;5115;50.920;6.376;2023-04-25T14:18:35;12.70;99.90
10149;DHT22;5115;50.920;6.376;2023-04-25T14:21:01;12.90;99.90
10149;DHT22;5115;50.920;6.376;2023-04-25T14:23:26;13.40;99.90
10149;DHT22;5115;50.920;6.376;2023-04-25T14:25:52;13.60;99.90
10149;DHT22;5115;50.920;6.376;2023-04-25T14:28:18;13.70;99.90
10149;DHT22;5115;50.920;6.376;2023-04-25T14:30:45;13.80;99.90
10149;DHT22;5115;50.920;6.376;2023-04-25T14:33:10;13.90;99.90
10149;DHT22;5115;50.920;6.376;2023-04-25T14:35:37;13.80;99.90
10149;DHT22;5115;50.920;6.376;2023-04-25T14:38:03;13.60;99.90
10149;DHT22;5115;50.920;6.376;2023-04-25T14:40:28;13.60;99.90
10149;DHT22;5115;50.920;6.376;2023-04-25T14:42:54;13.80;99.90
10149;DHT22;5115;50.920;6.376;2023-04-25T14:45:19;13.90;99.90
10149;DHT22;5115;50.920;6.376;2023-04-25T14:47:45;14.00;99.90
10149;DHT22;5115;50.920;6.376;2023-04-25T14:50:11;14.20;99.90
10149;DHT22;5115;50.920;6.376;2023-04-25T14:52:37;14.30;99.90
10149;DHT22;5115;50.920;6.376;2023-04-25T14:55:02;14.30;99.90
10149;DHT22;5115;50.920;6.376;2023-04-25T14:57:34;14.10;99.90
10149;DHT22;5115;50.920;6.376;2023-04-25T15:00:00;13.90;99.90
10149;DHT22;5115;50.920;6.376;2023-04-25T15:02:26;14.00;99.90
10149;DHT22;5115;50.920;6.376;2023-04-25T15:04:53;14.00;99.90
10149;DHT22;5115;50.920;6.376;2023-04-25T15:07:21;14.00;99.90
10149;DHT22;5115;50.920;6.376;2023-04-25T15:09:47;13.80;99.90
10149;DHT22;5115;50.920;6.376;2023-04-25T15:12:14;13.70;99.90
10149;DHT22;5115;50.920;6.376;2023-04-25T15:14:40;13.70;99.90
10149;DHT22;5115;50.920;6.376;2023-04-25T15:17:05;13.50;99.90
10149;DHT22;5115;50.920;6.376;2023-04-25T15:19:31;13.50;99.90
10149;DHT22;5115;50.920;6.376;2023-04-25T15:21:57;13.40;99.90
10149;DHT22;5115;50.920;6.376;2023-04-25T15:24:25;13.50;99.90
10149;DHT22;5115;50.920;6.376;2023-04-25T15:26:51;13.40;99.90
10149;DHT22;5115;50.920;6.376;2023-04-25T15:29:17;13.60;99.90
10149;DHT22;5115;50.920;6.376;2023-04-25T15:31:43;13.60;99.90
10149;DHT22;5115;50.920;6.376;2023-04-25T15:34:08;13.60;99.90
10149;DHT22;5115;50.920;6.376;2023-04-25T15:36:34;13.90;99.90
10149;DHT22;5115;50.920;6.376;2023-04-25T15:39:00;13.10;99.90
10149;DHT22;5115;50.920;6.376;2023-04-25T15:41:26;12.90;99.90
10149;DHT22;5115;50.920;6.376;2023-04-25T15:43:52;12.90;99.90
10149;DHT22;5115;50.920;6.376;2023-04-25T15:46:17;12.80;99.90
10149;DHT22;5115;50.920;6.376;2023-04-25T15:48:43;12.90;99.90
10149;DHT22;5115;50.920;6.376;2023-04-25T15:51:09;12.90;99.90
10149;DHT22;5115;50.920;6.376;2023-04-25T15:53:34;13.20;99.90
10149;DHT22;5115;50.920;6.376;2023-04-25T15:56:01;13.00;99.90
10149;DHT22;5115;50.920;6.376;2023-04-25T15:58:29;13.10;99.90
10149;DHT22;5115;50.920;6.376;2023-04-25T16:00:55;12.90;99.90
10149;DHT22;5115;50.920;6.376;2023-04-25T16:03:22;13.00;99.90
10149;DHT22;5115;50.920;6.376;2023-04-25T16:05:48;13.00;99.90